Aeroboteco Virtual Airlines! Uma nuvem a frente.



 INFORMAÇÕES METEOROLÓGICAS
METAR FOR EGLC
ADDS - METARS form results

(2206 UTC 21 March 2019)
Data provider http://aviationweather.gov/metar/data/
 
METAR text: EGLC 212150Z AUTO VRB03KT 9999 BKN030 13/08 Q1032
Conditions at: EGLC (LONDON CITY AIRP, GB) observed 2150 UTC 21 March 2019
Temperature: 13.0°C (55°F)
Dewpoint: 8.0°C (46°F) [RH = 72%]
Pressure (altimeter): 30.47 inches Hg (1032.0 mb)
Winds: variable direction winds at 3 MPH (3 knots; 1.5 m/s)
Visibility: 6 or more miles (10+ km)
Ceiling: 3000 feet AGL
Clouds: broken clouds at 3000 feet AGL
Weather: no significant weather observed at this time

METAR text: EGLC 212120Z AUTO 16004KT 110V190 9999 OVC030 14/08 Q1032
Conditions at: EGLC (LONDON CITY AIRP, GB) observed 2120 UTC 21 March 2019
Temperature: 14.0°C (57°F)
Dewpoint: 8.0°C (46°F) [RH = 67%]
Pressure (altimeter): 30.47 inches Hg (1032.0 mb)
Winds: from the SSE (160 degrees) at 5 MPH (4 knots; 2.1 m/s)
Visibility: 6 or more miles (10+ km)
Ceiling: 3000 feet AGL
Clouds: overcast cloud deck at 3000 feet AGL
Weather: no significant weather observed at this time

Forecast for: EGLC (LONDON CITY AIRP, GB)
Text: TAF EGLC 211655Z 2118/2121 24008KT 9999 BKN025
Forecast period: 1800 to 2100 UTC 21 March 2019
Forecast type: FROM: standard forecast or significant change
Winds: from the WSW (240 degrees) at 9 MPH (8 knots; 4.1 m/s)
Visibility: 6 or more miles 10+ km)
Ceiling: 2500 feet AGL
Clouds: broken clouds at 2500 feet AGL
Weather: no significant weather forecast for this period

 MAPA DO AEROPORTO

 INFORMAÇÕES DA PISTA
Pista 10 Tamanho da pista 4948 ft Largura da pista 98 ft
Elevação da pista 16 ft Ranhura da pista 358 ft Proa da pista 93
Pista 28 Tamanho da pista 4948 ft Largura da pista 98 ft
Elevação da pista 19 ft Ranhura da pista 211 ft Proa da pista 273

 FREQUÊNCIAS DO AEROPORTO
Tipo APP Nome APP Frequência 132.7 MHZ
Tipo ATIS Nome ATIS Frequência 136.35 MHZ
Tipo GND Nome GND Frequência 121.825 MHZ
Tipo TWR Nome TWR Frequência 118.075 MHZ

 AUXÍLIOS DE NAVEGAÇÃO PRÓXIMOS AO AEROPORTO
Tipo NDB Nome City Frequência 322 KHZ